createdAt,value
2022-12-17T00:01:42.678Z,98571.38
2022-12-17T00:07:02.996Z,98573.00
2022-12-17T00:12:23.161Z,98571.28
2022-12-17T00:17:43.530Z,98571.22
2022-12-17T00:23:03.765Z,98571.97
2022-12-17T00:28:28.759Z,98578.69
2022-12-17T00:33:49.038Z,98587.22
2022-12-17T00:39:09.445Z,98590.50
2022-12-17T00:44:30.146Z,98589.69
2022-12-17T00:49:50.335Z,98589.75
2022-12-17T00:55:10.516Z,98608.28
2022-12-17T01:00:31.340Z,98612.56
2022-12-17T01:05:52.688Z,98622.72
2022-12-17T01:11:19.185Z,98626.97
2022-12-17T01:16:39.566Z,98632.06
2022-12-17T01:22:01.668Z,98636.31
2022-12-17T01:27:21.940Z,98635.66
2022-12-17T01:32:44.127Z,98642.38
2022-12-17T01:38:04.438Z,98645.81
2022-12-17T01:43:30.424Z,98644.16
2022-12-17T01:49:03.302Z,98640.72
2022-12-17T01:54:24.714Z,98651.72
2022-12-17T01:59:57.684Z,98656.81
2022-12-17T02:05:17.944Z,98661.06
2022-12-17T02:10:48.511Z,98661.88
2022-12-17T02:16:44.670Z,98662.72
2022-12-17T02:22:13.469Z,98662.72
2022-12-17T02:27:34.841Z,98671.97
2022-12-17T02:33:00.342Z,98671.09
2022-12-17T02:38:43.148Z,98665.09
2022-12-17T02:44:04.529Z,98675.28
2022-12-17T02:49:26.181Z,98676.09
2022-12-17T02:54:51.813Z,98682.16
2022-12-17T03:00:13.213Z,98683.03
2022-12-17T03:05:45.120Z,98684.69
2022-12-17T03:11:06.190Z,98690.53
2022-12-17T03:16:32.783Z,98696.44
2022-12-17T03:21:57.415Z,98699.81
2022-12-17T03:27:17.575Z,98703.31
2022-12-17T03:32:37.811Z,98715.19
2022-12-17T03:37:58.052Z,98705.91
2022-12-17T03:43:25.780Z,98716.97
2022-12-17T03:48:46.024Z,98712.72
2022-12-17T03:54:06.289Z,98718.63
2022-12-17T03:59:26.515Z,98723.56
2022-12-17T04:04:46.887Z,98727.00
2022-12-17T04:10:07.100Z,98732.03
2022-12-17T04:15:27.783Z,98741.28
2022-12-17T04:20:48.026Z,98751.38
2022-12-17T04:26:08.343Z,98754.75
2022-12-17T04:31:28.716Z,98765.75
2022-12-17T04:36:48.955Z,98767.53
2022-12-17T04:42:09.184Z,98774.28
2022-12-17T04:47:29.410Z,98776.66
2022-12-17T04:52:49.690Z,98781.69
2022-12-17T04:58:09.922Z,98785.06
2022-12-17T05:03:35.195Z,98784.16
2022-12-17T05:08:55.970Z,98792.53
2022-12-17T05:14:16.200Z,98800.97
2022-12-17T05:19:36.631Z,98798.44
2022-12-17T05:24:57.345Z,98805.25
2022-12-17T05:30:17.668Z,98810.25
2022-12-17T05:35:37.933Z,98822.16
2022-12-17T05:40:58.153Z,98839.06
2022-12-17T05:46:18.886Z,98839.94
2022-12-17T05:51:40.275Z,98839.13
2022-12-17T05:57:00.478Z,98843.25
2022-12-17T06:02:20.687Z,98856.72
2022-12-17T06:07:41.040Z,98859.19
2022-12-17T06:13:01.459Z,98860.69
2022-12-17T06:18:21.758Z,98860.69
2022-12-17T06:23:41.982Z,98862.28
2022-12-17T06:29:02.943Z,98868.94
2022-12-17T06:34:23.064Z,98881.59
2022-12-17T06:39:43.222Z,98882.41
2022-12-17T06:45:03.523Z,98886.53
2022-12-17T06:50:24.734Z,98891.50
2022-12-17T06:55:45.093Z,98900.75
2022-12-17T07:01:05.827Z,98903.16
2022-12-17T07:06:27.243Z,98915.75
2022-12-17T07:11:47.776Z,98933.56
2022-12-17T07:17:08.083Z,98937.00
2022-12-17T07:22:28.524Z,98941.06
2022-12-17T07:27:48.856Z,98949.38
2022-12-17T07:33:26.089Z,98950.88
2022-12-17T07:38:49.426Z,98952.53
2022-12-17T07:44:09.734Z,98958.44
2022-12-17T07:49:30.698Z,98960.03
2022-12-17T07:54:51.107Z,98968.34
2022-12-17T08:00:11.334Z,98974.13
2022-12-17T08:05:31.444Z,98987.47
2022-12-17T08:10:51.499Z,98978.81
2022-12-17T08:16:13.057Z,98990.44
2022-12-17T08:21:33.763Z,98998.75
2022-12-17T08:26:54.082Z,99005.41
2022-12-17T08:32:14.335Z,99013.69
2022-12-17T08:37:34.715Z,99025.22
2022-12-17T08:42:55.268Z,99030.13
2022-12-17T08:48:26.367Z,99028.31
2022-12-17T08:53:46.453Z,99039.94
2022-12-17T08:59:07.053Z,99031.34
2022-12-17T09:04:27.422Z,99041.41
2022-12-17T09:09:47.695Z,99051.50
2022-12-17T09:15:07.926Z,99050.75
2022-12-17T09:20:29.561Z,99062.66
2022-12-17T09:25:53.678Z,99066.84
2022-12-17T09:31:20.726Z,99060.81
2022-12-17T09:36:41.168Z,99062.78
2022-12-17T09:42:27.375Z,99070.91
2022-12-17T09:48:15.329Z,99079.97
2022-12-17T09:54:08.690Z,99080.44
2022-12-17T09:59:39.029Z,99076.03
2022-12-17T10:05:02.968Z,99075.59
2022-12-17T10:10:38.447Z,99092.41
2022-12-17T10:16:01.688Z,99094.94
2022-12-17T10:21:25.406Z,99102.47
2022-12-17T10:26:49.719Z,99103.06
2022-12-17T10:32:10.683Z,99104.63
2022-12-17T10:37:39.127Z,99114.78
2022-12-17T10:42:59.405Z,99127.28
2022-12-17T10:48:20.067Z,99123.78
2022-12-17T10:53:43.892Z,99117.72
2022-12-17T10:59:12.825Z,99122.41
2022-12-17T11:04:42.361Z,99131.94
2022-12-17T11:10:11.707Z,99137.16
2022-12-17T11:15:51.341Z,99133.78
2022-12-17T11:21:38.915Z,99133.50
2022-12-17T11:27:02.870Z,99139.91
2022-12-17T11:32:32.575Z,99137.13
2022-12-17T11:38:16.173Z,99146.44
2022-12-17T11:44:15.559Z,99138.56
2022-12-17T11:50:04.443Z,99150.19
2022-12-17T11:55:27.889Z,99147.50
2022-12-17T12:00:55.327Z,99149.31
2022-12-17T12:06:21.587Z,99153.50
2022-12-17T12:12:04.502Z,99159.34
2022-12-17T12:17:37.017Z,99168.50
2022-12-17T12:23:11.940Z,99159.75
2022-12-17T12:28:41.386Z,99158.56
2022-12-17T12:34:28.088Z,99162.69
2022-12-17T12:40:00.083Z,99167.53
2022-12-17T12:45:26.972Z,99173.31
2022-12-17T12:51:19.408Z,99171.59
2022-12-17T12:56:54.545Z,99178.56
2022-12-17T13:02:14.751Z,99183.84
2022-12-17T13:07:28.206Z,99187.13
2022-12-17T13:12:44.778Z,99198.06
2022-12-17T13:18:16.339Z,99195.44
2022-12-17T13:23:39.186Z,99197.94
2022-12-17T13:28:42.943Z,99201.44
2022-12-17T13:33:54.840Z,99201.38
2022-12-17T13:39:12.273Z,99209.94
2022-12-17T13:44:29.590Z,99213.47
2022-12-17T13:49:32.138Z,99219.56
2022-12-17T13:54:34.757Z,99232.47
2022-12-17T13:59:38.079Z,99236.97
2022-12-17T14:04:40.995Z,99240.47
2022-12-17T14:09:44.108Z,99244.97
2022-12-17T14:14:56.213Z,99256.06
2022-12-17T14:20:22.855Z,99265.44
2022-12-17T14:25:34.231Z,99277.44
2022-12-17T14:30:42.921Z,99283.50
2022-12-17T14:35:55.188Z,99294.69
2022-12-17T14:41:31.628Z,99297.44
2022-12-17T14:46:35.066Z,99289.94
2022-12-17T14:51:42.835Z,99300.41
2022-12-17T14:56:45.116Z,99313.97
2022-12-17T15:01:55.637Z,99315.09
2022-12-17T15:06:59.209Z,99322.78
2022-12-17T15:12:01.015Z,99332.16
2022-12-17T15:17:02.866Z,99329.63
2022-12-17T15:22:05.449Z,99328.78
2022-12-17T15:27:08.617Z,99339.75
2022-12-17T15:32:19.547Z,99338.84
2022-12-17T15:37:25.632Z,99346.50
2022-12-17T15:42:46.394Z,99349.94
2022-12-17T15:47:48.473Z,99346.63
2022-12-17T15:52:50.405Z,99337.41
2022-12-17T15:57:52.337Z,99348.56
2022-12-17T16:02:54.344Z,99362.41
2022-12-17T16:07:59.273Z,99368.66
2022-12-17T16:13:01.174Z,99369.81
2022-12-17T16:18:03.265Z,99377.00
2022-12-17T16:23:05.263Z,99372.38
2022-12-17T16:28:07.098Z,99374.34
2022-12-17T16:33:08.931Z,99373.56
2022-12-17T16:38:10.812Z,99379.38
2022-12-17T16:43:12.614Z,99385.94
2022-12-17T16:48:15.050Z,99384.00
2022-12-17T16:53:18.456Z,99398.34
2022-12-17T16:58:20.268Z,99405.03
2022-12-17T17:03:22.312Z,99404.22
2022-12-17T17:08:24.376Z,99409.44
2022-12-17T17:13:26.142Z,99409.50
2022-12-17T17:18:28.139Z,99416.25
2022-12-17T17:23:30.897Z,99419.69
2022-12-17T17:28:32.938Z,99429.25
2022-12-17T17:33:37.194Z,99427.19
2022-12-17T17:38:42.380Z,99432.66
2022-12-17T17:43:44.808Z,99432.31
2022-12-17T17:48:49.821Z,99441.38
2022-12-17T17:53:55.679Z,99441.13
2022-12-17T17:59:05.485Z,99443.28
2022-12-17T18:04:12.108Z,99437.94
2022-12-17T18:09:14.748Z,99451.06
2022-12-17T18:14:18.207Z,99459.91
2022-12-17T18:19:22.025Z,99463.66
2022-12-17T18:24:23.830Z,99472.25
2022-12-17T18:29:28.913Z,99474.19
2022-12-17T18:34:30.953Z,99476.13
2022-12-17T18:39:33.355Z,99477.19
2022-12-17T18:44:38.767Z,99496.03
2022-12-17T18:49:41.921Z,99491.16
2022-12-17T18:54:43.654Z,99499.06
2022-12-17T18:59:45.814Z,99507.84
2022-12-17T19:04:47.655Z,99506.47
2022-12-17T19:09:52.292Z,99511.75
2022-12-17T19:14:54.110Z,99518.56
2022-12-17T19:19:55.842Z,99520.44
2022-12-17T19:24:57.597Z,99518.94
2022-12-17T19:29:59.396Z,99525.97
2022-12-17T19:35:01.310Z,99538.03
2022-12-17T19:40:03.674Z,99545.00
2022-12-17T19:45:06.681Z,99549.38
2022-12-17T19:50:08.797Z,99544.44
2022-12-17T19:55:10.636Z,99539.44
2022-12-17T20:00:12.808Z,99541.25
2022-12-17T20:05:14.573Z,99545.66
2022-12-17T20:10:16.518Z,99551.75
2022-12-17T20:15:18.358Z,99561.19
2022-12-17T20:20:20.119Z,99559.59
2022-12-17T20:25:25.009Z,99557.13
2022-12-17T20:30:27.013Z,99572.41
2022-12-17T20:35:28.789Z,99570.94
2022-12-17T20:40:30.821Z,99582.84
2022-12-17T20:45:32.631Z,99585.56
2022-12-17T20:50:40.683Z,99583.91
2022-12-17T20:55:42.679Z,99592.47
2022-12-17T21:00:44.579Z,99593.41
2022-12-17T21:05:46.545Z,99602.84
2022-12-17T21:10:48.337Z,99594.44
2022-12-17T21:15:54.742Z,99601.25
2022-12-17T21:20:59.557Z,99604.69
2022-12-17T21:26:04.323Z,99601.44
2022-12-17T21:31:30.354Z,99605.81
2022-12-17T21:36:34.124Z,99607.63
2022-12-17T21:41:39.276Z,99622.00
2022-12-17T21:46:50.002Z,99631.31
2022-12-17T21:51:52.278Z,99638.94
2022-12-17T21:56:54.196Z,99634.69
2022-12-17T22:01:57.553Z,99631.34
2022-12-17T22:07:17.407Z,99621.22
2022-12-17T22:12:39.919Z,99618.66
2022-12-17T22:17:43.057Z,99631.44
2022-12-17T22:22:45.619Z,99635.75
2022-12-17T22:27:47.709Z,99647.78
2022-12-17T22:33:07.065Z,99661.38
2022-12-17T22:41:57.834Z,99664.03
2022-12-17T22:44:37.052Z,99661.53
2022-12-17T22:49:00.262Z,99675.09
2022-12-17T22:54:04.786Z,99671.78
2022-12-17T22:59:07.697Z,99678.66
2022-12-17T23:04:13.856Z,99681.25
2022-12-17T23:09:19.417Z,99684.75
2022-12-17T23:14:21.482Z,99676.34
2022-12-17T23:19:23.223Z,99686.44
2022-12-17T23:24:25.084Z,99684.75
2022-12-17T23:29:27.074Z,99683.94
2022-12-17T23:34:28.878Z,99701.69
2022-12-17T23:39:30.855Z,99700.03
2022-12-17T23:44:32.638Z,99694.13
2022-12-17T23:49:34.454Z,99684.06
2022-12-17T23:54:36.199Z,99693.34
2022-12-17T23:59:37.989Z,99690.88
